Airport View

Enter AWOS ICAO identifier for current METAR.

ex. KFNL

KRDG 191854Z 30020G26KT 10SM SCT043 02/M07 A2985 RMK AO2 PK WND 29028/1834 SLP115 T00221067 $

19 Jan 2020 19:40

Phone: 610-372-9863

Other Area AWOS: KPTW - KLNS - KMQS - KXLL

TAF KRDG 191720Z 1918/2018 29017G27KT P6SM BKN060 FM192300 31012G19KT P6SM SCT060 FM200300 31012KT P6SM BKN050 FM201400 32012G20KT P6SM SCT050